Haines Airport Haines US
ICAO: PAHN
IATA:
Category: Medium
Scheduled Services:

Elevation: 15 ft
TransAlt. 18000 ft.

Airport Communications:
ASOS:135.75
ANCHORAGE CNTR:132.3
CTAF:122.9
JUNEAU RDO:122.6
TWEB:24.5

PAHN Zoom In..

If you have problems with the map follow the link
https://www.worldairports.se/pages/airport.php?
ICAO=PAHN

Runways:

(A) RW 08 length 4000 ft width 100 ft
---- / hdg 86

(B) RW 26 length 4000 ft width 100 ft
---- / hdg 266

Location; PAHN
Day. 21 / Time. 17.54 Zulu
* Altimeter: 29.92
* Temperature: 10° c. 50°f.
* Wind from: 090° Speed 09 kn with Gusts up to 20 kn.
Dewpoint: 07° c.
Visibility: 10 Statute Miles.
Clouds: Scattered 1500 ft.
Clouds: Broken 4200 ft.
Clouds: Overcast 1000 ft.

PAHN 211754Z AUTO 09009G20KT 10SM SCT015 BKN042 OVC100 10/07 A2992 RMK AO2 RAE12 SLP135 P0000 60000 T01000072 10100 20089 56009 TSNO


Wind From 090°
Speed 09 kn.

 
 
jpsmedia.com for Web Design worldairports.se 2018   terms of use